Time;durP1;ratioP1;P1;durP2;ratioP2;P2;SDS_P1;SDS_P2;PMS_P1;PMS_P2;Temp;Humidity;BMP_temperature;BMP_pressure;BME280_temperature;BME280_humidity;BME280_pressure;Samples;Min_cycle;Max_cycle;Signal;HPM_P1;HPM_P2
2021/07/05 00:00:47;;;;;;;4.60;4.13;;;14.60;99.90;;;;;;5046927;28;20465;-77
2021/07/05 00:03:14;;;;;;;4.60;4.20;;;14.70;99.90;;;;;;5055981;28;20493;-77
2021/07/05 00:05:40;;;;;;;4.37;3.97;;;14.70;99.90;;;;;;5039797;28;20545;-77
2021/07/05 00:08:07;;;;;;;4.50;4.20;;;14.70;99.90;;;;;;5036702;28;20462;-77
2021/07/05 00:10:34;;;;;;;4.57;4.13;;;14.60;99.90;;;;;;5040706;28;20543;-78
2021/07/05 00:13:01;;;;;;;4.67;3.67;;;14.70;99.90;;;;;;5052531;28;20471;-75
2021/07/05 00:15:30;;;;;;;4.33;3.93;;;14.60;99.90;;;;;;5058175;28;20464;-76
2021/07/05 00:18:01;;;;;;;4.83;4.43;;;14.60;99.90;;;;;;5063532;28;20468;-76
2021/07/05 00:20:29;;;;;;;9.07;4.20;;;14.60;99.90;;;;;;5048934;28;20548;-76
2021/07/05 00:22:57;;;;;;;5.03;4.47;;;14.60;99.90;;;;;;5056097;28;20568;-76
2021/07/05 00:25:25;;;;;;;4.97;4.47;;;14.60;99.90;;;;;;5048566;28;21044;-76
2021/07/05 00:27:51;;;;;;;4.97;3.50;;;14.60;99.90;;;;;;5049204;28;20448;-76
2021/07/05 00:30:19;;;;;;;4.37;4.03;;;14.60;99.90;;;;;;5046785;28;21079;-76
2021/07/05 00:32:47;;;;;;;6.03;4.50;;;14.60;99.90;;;;;;5051723;28;20463;-77
2021/07/05 00:35:17;;;;;;;5.43;4.90;;;14.60;99.90;;;;;;5047187;28;20479;-77
2021/07/05 00:37:44;;;;;;;5.60;3.80;;;14.60;99.90;;;;;;5054214;28;20444;-77
2021/07/05 00:40:12;;;;;;;8.63;4.53;;;14.70;99.90;;;;;;5048454;28;20456;-76
2021/07/05 00:42:39;;;;;;;4.20;3.80;;;14.80;99.90;;;;;;5051831;28;20847;-76
2021/07/05 00:45:07;;;;;;;5.60;4.40;;;14.80;99.90;;;;;;5046536;28;20476;-76
2021/07/05 00:47:34;;;;;;;4.10;3.80;;;14.80;99.90;;;;;;5056535;28;20856;-76
2021/07/05 00:50:01;;;;;;;3.90;3.50;;;14.80;99.90;;;;;;5057762;28;20533;-75
2021/07/05 00:52:30;;;;;;;4.43;4.03;;;14.80;99.90;;;;;;5052365;28;20560;-77
2021/07/05 00:54:56;;;;;;;5.57;3.80;;;14.90;99.90;;;;;;5052446;28;20513;-76
2021/07/05 00:57:25;;;;;;;3.63;3.30;;;14.90;99.90;;;;;;5053793;28;20545;-77
2021/07/05 00:59:53;;;;;;;4.30;3.80;;;14.90;99.90;;;;;;5050883;28;20548;-77
2021/07/05 01:02:21;;;;;;;4.77;3.77;;;14.80;99.90;;;;;;5046003;28;21036;-77
2021/07/05 01:04:49;;;;;;;4.23;3.80;;;14.80;99.90;;;;;;5049360;28;20544;-76
2021/07/05 01:07:17;;;;;;;4.90;3.90;;;14.80;99.90;;;;;;5048211;28;20535;-77
2021/07/05 01:09:46;;;;;;;3.50;3.20;;;14.80;99.90;;;;;;5055155;28;20547;-77
2021/07/05 01:12:13;;;;;;;3.80;3.50;;;14.80;99.90;;;;;;5047259;28;20545;-76
2021/07/05 01:14:41;;;;;;;3.63;3.40;;;14.70;99.90;;;;;;5051448;28;20485;-77
2021/07/05 01:17:13;;;;;;;3.67;3.37;;;14.70;99.90;;;;;;5052849;28;20538;-77
2021/07/05 01:19:41;;;;;;;3.90;3.60;;;14.70;99.90;;;;;;5045990;28;20550;-76
2021/07/05 01:22:10;;;;;;;3.90;3.60;;;14.60;99.90;;;;;;5042628;28;20473;-76
2021/07/05 01:24:36;;;;;;;3.90;3.60;;;14.50;99.90;;;;;;5045998;28;20456;-76
2021/07/05 01:27:04;;;;;;;8.40;4.00;;;14.50;99.90;;;;;;5045991;28;20544;-76
2021/07/05 01:29:31;;;;;;;4.87;3.80;;;14.50;99.90;;;;;;5047686;28;20452;-75
2021/07/05 01:31:58;;;;;;;4.70;4.30;;;14.40;99.90;;;;;;5043437;28;20450;-77
2021/07/05 01:34:25;;;;;;;4.80;4.30;;;14.40;99.90;;;;;;5040491;28;20564;-77
2021/07/05 01:36:52;;;;;;;7.13;4.17;;;14.30;99.90;;;;;;5035314;28;20554;-76
2021/07/05 01:39:21;;;;;;;8.03;4.57;;;14.30;99.90;;;;;;5033256;28;21113;-77
2021/07/05 01:41:48;;;;;;;4.20;3.80;;;14.30;99.90;;;;;;5056052;28;20541;-78
2021/07/05 01:44:16;;;;;;;4.10;3.80;;;14.20;99.90;;;;;;5053666;28;20585;-76
2021/07/05 01:46:43;;;;;;;6.07;4.00;;;14.20;99.90;;;;;;5056005;28;20541;-76
2021/07/05 01:49:09;;;;;;;7.00;4.87;;;14.10;99.90;;;;;;5053772;28;20967;-78
2021/07/05 01:51:37;;;;;;;6.37;4.13;;;14.10;99.90;;;;;;5047367;28;20484;-76
2021/07/05 01:54:04;;;;;;;5.53;4.97;;;14.10;99.90;;;;;;5044184;28;20957;-76
2021/07/05 01:56:33;;;;;;;4.27;3.90;;;14.10;99.90;;;;;;5045900;28;20462;-76
2021/07/05 01:59:00;;;;;;;4.80;4.40;;;14.00;99.90;;;;;;5046244;28;20497;-77
2021/07/05 02:01:28;;;;;;;5.00;4.50;;;13.90;99.90;;;;;;5047397;28;20446;-76
2021/07/05 02:03:55;;;;;;;7.23;4.67;;;13.80;99.90;;;;;;5043172;28;20471;-76
2021/07/05 02:06:21;;;;;;;5.33;4.60;;;13.90;99.90;;;;;;5044523;28;20541;-77
2021/07/05 02:08:48;;;;;;;5.23;4.67;;;13.80;99.90;;;;;;5042694;28;20544;-77
2021/07/05 02:11:15;;;;;;;4.20;3.90;;;13.80;99.90;;;;;;5047260;28;20485;-76
2021/07/05 02:13:43;;;;;;;4.90;4.40;;;13.80;99.90;;;;;;5053492;28;20561;-76
2021/07/05 02:16:10;;;;;;;3.73;3.53;;;13.80;99.90;;;;;;5042350;28;20495;-76
2021/07/05 02:18:37;;;;;;;6.90;4.70;;;13.80;99.90;;;;;;5046851;28;20539;-77
2021/07/05 02:21:08;;;;;;;5.73;4.47;;;13.70;99.90;;;;;;5050041;28;20545;-77
2021/07/05 02:23:36;;;;;;;7.67;4.73;;;13.70;99.90;;;;;;5051006;28;20459;-77
2021/07/05 02:26:03;;;;;;;6.63;4.50;;;13.70;99.90;;;;;;5048970;28;20520;-76
2021/07/05 02:28:34;;;;;;;5.73;4.00;;;13.70;99.90;;;;;;5052596;28;20971;-77
2021/07/05 02:31:04;;;;;;;5.70;4.97;;;13.60;99.90;;;;;;5042172;28;20824;-77
2021/07/05 02:33:32;;;;;;;5.20;4.70;;;13.70;99.90;;;;;;5046818;28;20532;-76
2021/07/05 02:35:59;;;;;;;9.73;4.43;;;13.70;99.90;;;;;;5045059;28;20456;-76
2021/07/05 02:38:27;;;;;;;7.70;5.40;;;13.70;99.90;;;;;;5046670;28;20546;-77
2021/07/05 02:40:55;;;;;;;6.37;5.60;;;13.70;99.90;;;;;;5048373;28;20449;-76
2021/07/05 02:43:23;;;;;;;5.93;5.13;;;13.80;99.90;;;;;;5039612;28;20949;-76
2021/07/05 02:45:52;;;;;;;5.53;5.03;;;13.70;99.90;;;;;;5041747;28;20690;-75
2021/07/05 02:48:22;;;;;;;7.93;5.43;;;13.60;99.90;;;;;;5051352;28;20614;-76
2021/07/05 02:50:52;;;;;;;7.57;6.70;;;13.60;99.90;;;;;;5047136;28;20532;-76
2021/07/05 02:53:19;;;;;;;8.67;6.63;;;13.70;99.90;;;;;;5046194;28;20563;-76
2021/07/05 02:55:46;;;;;;;7.07;6.33;;;13.80;99.90;;;;;;5043536;28;20462;-76
2021/07/05 02:58:13;;;;;;;7.30;6.70;;;13.70;99.90;;;;;;5053995;28;20457;-75
2021/07/05 03:00:42;;;;;;;5.43;4.93;;;13.60;99.90;;;;;;5040573;28;20489;-75
2021/07/05 03:03:09;;;;;;;6.63;5.70;;;13.50;99.90;;;;;;5030206;28;20504;-77
2021/07/05 03:05:37;;;;;;;7.20;6.60;;;13.50;99.90;;;;;;5029523;28;20536;-77
2021/07/05 03:08:05;;;;;;;6.20;5.60;;;13.50;99.90;;;;;;5034094;28;20471;-77
2021/07/05 03:10:34;;;;;;;7.60;5.97;;;13.40;99.90;;;;;;5050928;28;20551;-76
2021/07/05 03:13:02;;;;;;;7.60;5.37;;;13.30;99.90;;;;;;5046341;28;20464;-77
2021/07/05 03:15:29;;;;;;;6.57;5.50;;;13.30;99.90;;;;;;5050527;28;20459;-76
2021/07/05 03:17:56;;;;;;;6.50;5.90;;;13.30;99.90;;;;;;5044985;28;20461;-77
2021/07/05 03:20:25;;;;;;;9.90;6.60;;;13.40;99.90;;;;;;5047001;28;20450;-76
2021/07/05 03:22:55;;;;;;;7.83;6.47;;;13.40;99.90;;;;;;5046815;28;20547;-77
2021/07/05 03:25:23;;;;;;;6.87;6.17;;;13.60;99.90;;;;;;5044850;28;20509;-77
2021/07/05 03:27:52;;;;;;;6.60;6.00;;;13.60;99.90;;;;;;5046600;28;20655;-77
2021/07/05 03:30:21;;;;;;;6.50;5.90;;;13.70;99.90;;;;;;5045989;28;20441;-77
2021/07/05 03:32:48;;;;;;;6.03;5.40;;;13.70;99.90;;;;;;5043712;28;20480;-77
2021/07/05 03:35:17;;;;;;;8.27;6.50;;;13.80;99.90;;;;;;5049815;28;20481;-76
2021/07/05 03:37:44;;;;;;;6.07;5.57;;;13.70;99.90;;;;;;5052142;28;20448;-76
2021/07/05 03:40:15;;;;;;;8.13;5.93;;;13.70;99.90;;;;;;5049012;28;21068;-76
2021/07/05 03:42:41;;;;;;;9.23;5.50;;;13.70;99.90;;;;;;5051370;28;20562;-76
2021/07/05 03:45:10;;;;;;;6.87;5.93;;;13.80;99.90;;;;;;5052172;28;20486;-75
2021/07/05 03:47:37;;;;;;;5.70;5.20;;;13.70;99.90;;;;;;5055943;28;20522;-75
2021/07/05 03:50:04;;;;;;;7.60;5.90;;;13.70;99.90;;;;;;5050175;28;20447;-76
2021/07/05 03:52:31;;;;;;;6.83;6.17;;;13.80;99.90;;;;;;5039592;28;20889;-77
2021/07/05 03:54:58;;;;;;;6.83;5.53;;;13.80;99.90;;;;;;5048494;28;20463;-76
2021/07/05 03:57:27;;;;;;;6.43;5.80;;;13.90;99.90;;;;;;5054985;28;20480;-74
2021/07/05 03:59:56;;;;;;;7.30;5.90;;;13.90;99.90;;;;;;5041791;28;20727;-75
2021/07/05 04:02:23;;;;;;;6.87;6.10;;;13.90;99.90;;;;;;5056259;28;20480;-75
2021/07/05 04:04:52;;;;;;;5.90;5.40;;;14.00;99.90;;;;;;5050252;28;20496;-76
2021/07/05 04:07:19;;;;;;;6.47;5.80;;;14.00;99.90;;;;;;5053532;28;21289;-77
2021/07/05 04:09:46;;;;;;;5.53;5.03;;;14.10;99.90;;;;;;5046557;28;20972;-78
2021/07/05 04:12:17;;;;;;;11.23;5.93;;;14.10;99.90;;;;;;5048793;28;20502;-77
2021/07/05 04:14:45;;;;;;;5.57;5.07;;;14.50;99.90;;;;;;5054398;28;20811;-77
2021/07/05 04:17:12;;;;;;;4.20;3.90;;;15.10;99.90;;;;;;5047366;28;20527;-77
2021/07/05 04:19:39;;;;;;;3.50;3.20;;;15.60;99.90;;;;;;5047876;28;20856;-76
2021/07/05 04:22:06;;;;;;;3.30;3.00;;;16.10;99.90;;;;;;5048523;28;20494;-77
2021/07/05 04:24:33;;;;;;;2.80;2.60;;;16.30;99.90;;;;;;5054808;28;20460;-76
2021/07/05 04:27:00;;;;;;;4.10;2.90;;;16.90;99.90;;;;;;5048122;28;20455;-76
2021/07/05 04:29:26;;;;;;;3.03;2.30;;;17.30;94.10;;;;;;5049878;28;20462;-76
2021/07/05 04:31:55;;;;;;;3.83;2.73;;;17.80;91.20;;;;;;5047936;28;20516;-77
2021/07/05 04:34:22;;;;;;;2.50;2.30;;;18.30;90.30;;;;;;5045215;28;20533;-77
2021/07/05 04:36:48;;;;;;;5.50;2.97;;;18.60;86.00;;;;;;5049048;28;20475;-77
2021/07/05 04:39:15;;;;;;;4.60;2.20;;;19.00;84.70;;;;;;5043666;28;20458;-77
2021/07/05 04:41:42;;;;;;;2.23;2.07;;;19.50;82.10;;;;;;5053581;28;20452;-77
2021/07/05 04:44:11;;;;;;;3.00;2.43;;;19.70;79.10;;;;;;5056712;28;20448;-77
2021/07/05 04:46:40;;;;;;;3.63;2.57;;;19.60;78.80;;;;;;5049686;28;20553;-77
2021/07/05 04:49:08;;;;;;;5.07;2.00;;;19.30;78.70;;;;;;5055481;28;20490;-78
2021/07/05 04:51:35;;;;;;;2.60;2.37;;;18.60;79.40;;;;;;5049269;28;20463;-78
2021/07/05 04:54:02;;;;;;;3.40;2.50;;;18.10;81.50;;;;;;5048582;28;20545;-77
2021/07/05 04:56:28;;;;;;;2.50;2.30;;;18.20;82.70;;;;;;5048917;28;20456;-77
2021/07/05 04:58:55;;;;;;;3.83;2.23;;;18.00;81.50;;;;;;5051179;28;20442;-77
2021/07/05 05:01:22;;;;;;;2.60;2.30;;;18.00;83.50;;;;;;5051882;28;20556;-77
2021/07/05 05:03:49;;;;;;;2.67;1.90;;;18.20;82.50;;;;;;5050298;28;20501;-77
2021/07/05 05:06:17;;;;;;;4.70;2.03;;;18.70;80.70;;;;;;5043446;28;20507;-76
2021/07/05 05:08:45;;;;;;;2.43;2.27;;;19.10;78.80;;;;;;5036237;28;20471;-77
2021/07/05 05:11:12;;;;;;;3.73;1.93;;;19.30;77.00;;;;;;5035207;28;20492;-76
2021/07/05 05:13:39;;;;;;;2.93;1.77;;;19.40;76.90;;;;;;5050486;28;20935;-77
2021/07/05 05:16:06;;;;;;;1.97;1.77;;;19.30;76.60;;;;;;5049704;28;21028;-78
2021/07/05 05:18:33;;;;;;;4.17;2.20;;;19.30;76.10;;;;;;5057789;28;20800;-78
2021/07/05 05:20:59;;;;;;;2.87;2.10;;;19.60;77.00;;;;;;5050951;28;20475;-78
2021/07/05 05:23:28;;;;;;;2.50;2.17;;;19.80;75.00;;;;;;5049967;28;20448;-78
2021/07/05 05:25:55;;;;;;;1.90;1.80;;;19.90;74.10;;;;;;5039735;28;20453;-78
2021/07/05 05:28:22;;;;;;;3.67;1.80;;;20.10;73.70;;;;;;5030012;28;20569;-82
2021/07/05 05:30:49;;;;;;;2.10;2.00;;;20.10;72.90;;;;;;5046848;28;20457;-82
2021/07/05 05:33:16;;;;;;;2.67;2.10;;;19.90;73.50;;;;;;5043231;28;20473;-79
2021/07/05 05:35:44;;;;;;;2.13;1.80;;;20.10;73.20;;;;;;5044277;28;20868;-78
2021/07/05 05:38:11;;;;;;;1.63;1.53;;;20.20;73.00;;;;;;5046628;28;20503;-78
2021/07/05 05:40:39;;;;;;;1.97;1.83;;;20.70;71.90;;;;;;5046479;28;20881;-78
2021/07/05 05:43:08;;;;;;;3.50;1.63;;;21.10;70.80;;;;;;5051388;28;21009;-78
2021/07/05 05:45:35;;;;;;;2.20;2.00;;;21.50;71.40;;;;;;5059441;28;20493;-78
2021/07/05 05:48:02;;;;;;;3.07;1.57;;;21.40;68.80;;;;;;5056366;28;20936;-78
2021/07/05 05:50:29;;;;;;;3.60;2.43;;;21.60;68.80;;;;;;5053487;28;20448;-78
2021/07/05 05:52:56;;;;;;;3.47;1.80;;;21.70;68.80;;;;;;5049958;28;20788;-78
2021/07/05 05:55:23;;;;;;;2.00;1.80;;;21.20;68.00;;;;;;5051303;28;20993;-78
2021/07/05 05:57:52;;;;;;;3.93;1.90;;;21.30;69.00;;;;;;5034766;28;20511;-79
2021/07/05 06:00:22;;;;;;;2.13;1.90;;;21.90;68.20;;;;;;5058981;28;20554;-79
2021/07/05 06:02:51;;;;;;;2.30;2.03;;;22.10;67.50;;;;;;5050676;28;20668;-79
2021/07/05 06:05:18;;;;;;;3.03;1.60;;;21.80;66.60;;;;;;5059838;28;20605;-77
2021/07/05 06:07:49;;;;;;;2.93;2.10;;;21.60;67.30;;;;;;5050854;28;22156;-80
2021/07/05 06:10:17;;;;;;;2.73;2.23;;;21.20;67.40;;;;;;5048415;28;20452;-78
2021/07/05 06:12:44;;;;;;;5.23;1.80;;;21.10;68.00;;;;;;5070117;28;20459;-80
2021/07/05 06:15:14;;;;;;;4.83;2.13;;;21.10;68.60;;;;;;5074007;28;20462;-80
2021/07/05 06:17:41;;;;;;;4.03;2.00;;;21.10;68.40;;;;;;5073411;28;20459;-78
2021/07/05 06:20:09;;;;;;;3.37;2.20;;;20.80;68.30;;;;;;5056677;28;20434;-77
2021/07/05 06:22:42;;;;;;;5.03;2.30;;;20.40;68.60;;;;;;5065837;28;20444;-79
2021/07/05 06:25:10;;;;;;;3.13;1.93;;;20.00;69.30;;;;;;5057940;28;20517;-78
2021/07/05 06:27:38;;;;;;;6.40;2.20;;;20.00;70.60;;;;;;5046301;28;20476;-78
2021/07/05 06:30:06;;;;;;;3.50;1.80;;;19.80;70.20;;;;;;5041874;28;20453;-79
2021/07/05 06:32:35;;;;;;;2.10;2.00;;;20.30;70.70;;;;;;5051432;28;20452;-78
2021/07/05 06:35:02;;;;;;;2.40;2.20;;;20.60;69.70;;;;;;5051329;28;20501;-78
2021/07/05 06:37:28;;;;;;;4.27;1.90;;;20.70;69.20;;;;;;5053890;28;20553;-78
2021/07/05 06:39:55;;;;;;;4.93;2.50;;;20.90;69.00;;;;;;5050932;28;20449;-78
2021/07/05 06:42:22;;;;;;;2.37;2.17;;;21.20;68.80;;;;;;5043033;28;20454;-78
2021/07/05 06:44:49;;;;;;;1.70;1.60;;;21.40;68.70;;;;;;5031422;28;20931;-78
2021/07/05 06:47:16;;;;;;;3.10;1.60;;;21.50;68.30;;;;;;5032996;28;20960;-78
2021/07/05 06:49:45;;;;;;;2.67;1.77;;;21.20;68.30;;;;;;5031633;28;20535;-78
2021/07/05 06:52:12;;;;;;;3.63;2.03;;;21.20;68.40;;;;;;5039951;28;20455;-78
2021/07/05 06:54:39;;;;;;;3.90;2.40;;;21.10;68.90;;;;;;5040318;28;21100;-80
2021/07/05 06:57:06;;;;;;;3.00;1.70;;;21.00;69.00;;;;;;5045118;28;20471;-79
2021/07/05 06:59:34;;;;;;;2.90;1.97;;;21.00;68.60;;;;;;5053697;28;20507;-80
2021/07/05 07:02:01;;;;;;;4.90;2.23;;;20.80;69.40;;;;;;5046009;28;21016;-80
2021/07/05 07:04:28;;;;;;;5.30;1.83;;;20.70;69.50;;;;;;5053729;28;20463;-77
2021/07/05 07:06:56;;;;;;;2.40;1.90;;;20.50;69.30;;;;;;5031307;28;20470;-77
2021/07/05 07:09:23;;;;;;;3.20;2.00;;;20.50;69.90;;;;;;5054166;28;20480;-79
2021/07/05 07:11:50;;;;;;;2.97;1.90;;;20.30;70.20;;;;;;5049345;28;20464;-78
2021/07/05 07:14:19;;;;;;;4.03;2.30;;;20.40;70.50;;;;;;5049597;28;20936;-79
2021/07/05 07:16:52;;;;;;;2.00;1.90;;;20.50;70.70;;;;;;5054807;28;20472;-78
2021/07/05 07:19:18;;;;;;;2.30;2.10;;;20.40;70.40;;;;;;5054958;28;20453;-78
2021/07/05 07:21:48;;;;;;;2.70;2.43;;;20.20;70.30;;;;;;5048149;28;20573;-77
2021/07/05 07:24:16;;;;;;;4.37;1.97;;;20.30;70.70;;;;;;5051067;28;20476;-78
2021/07/05 07:26:44;;;;;;;2.80;2.00;;;20.30;71.00;;;;;;5054202;28;22078;-78
2021/07/05 07:29:12;;;;;;;5.33;2.17;;;20.50;70.90;;;;;;5054530;28;20462;-80
2021/07/05 07:31:40;;;;;;;4.53;1.80;;;20.70;70.10;;;;;;5052279;28;20445;-80
2021/07/05 07:34:07;;;;;;;3.33;2.20;;;21.10;70.50;;;;;;5047311;28;20475;-80
2021/07/05 07:36:34;;;;;;;3.93;1.63;;;21.30;70.00;;;;;;5061368;28;20966;-78
2021/07/05 07:39:05;;;;;;;2.80;1.80;;;21.50;69.30;;;;;;5049606;28;20859;-78
2021/07/05 07:41:34;;;;;;;2.00;1.80;;;21.50;69.30;;;;;;5046160;28;20458;-79
2021/07/05 07:44:03;;;;;;;3.60;2.30;;;21.60;69.30;;;;;;5050328;28;20460;-79
2021/07/05 07:46:30;;;;;;;2.70;2.17;;;21.70;69.20;;;;;;5055559;28;20460;-79
2021/07/05 07:48:57;;;;;;;2.43;2.23;;;21.60;69.30;;;;;;5054614;28;20448;-80
2021/07/05 07:51:24;;;;;;;4.50;2.00;;;21.60;69.70;;;;;;5045610;28;20453;-79
2021/07/05 07:53:51;;;;;;;3.93;2.60;;;21.90;69.80;;;;;;5045347;28;20554;-79
2021/07/05 07:56:19;;;;;;;3.03;2.10;;;22.10;69.10;;;;;;5064579;28;20509;-79
2021/07/05 07:58:47;;;;;;;3.47;1.80;;;22.10;69.30;;;;;;5042606;28;20506;-79
2021/07/05 08:01:14;;;;;;;4.03;2.53;;;21.80;69.50;;;;;;5052142;28;20479;-78
2021/07/05 08:03:41;;;;;;;2.20;1.97;;;21.40;69.40;;;;;;5056036;28;20465;-79
2021/07/05 08:06:09;;;;;;;2.63;2.00;;;21.30;70.10;;;;;;5055045;28;20513;-79
2021/07/05 08:08:35;;;;;;;2.97;2.27;;;21.10;70.70;;;;;;5064279;28;20503;-79
2021/07/05 08:11:03;;;;;;;1.77;1.67;;;20.90;70.70;;;;;;5056447;28;20592;-79
2021/07/05 08:13:30;;;;;;;14.03;2.50;;;20.80;71.30;;;;;;5057126;28;20456;-79
2021/07/05 08:15:58;;;;;;;2.20;2.10;;;20.70;71.40;;;;;;5065976;28;20484;-80
2021/07/05 08:18:25;;;;;;;3.23;1.87;;;21.10;71.30;;;;;;5061333;28;20615;-79
2021/07/05 08:20:52;;;;;;;7.40;3.20;;;21.30;69.30;;;;;;5069667;28;20460;-79
2021/07/05 08:23:19;;;;;;;5.50;3.73;;;21.40;68.20;;;;;;5057751;28;20523;-79
2021/07/05 08:25:46;;;;;;;3.07;2.07;;;21.60;68.20;;;;;;5049140;28;20450;-79
2021/07/05 08:28:15;;;;;;;1.47;1.37;;;21.70;67.00;;;;;;5064930;28;20452;-79
2021/07/05 08:30:42;;;;;;;3.90;1.43;;;21.60;66.60;;;;;;5070660;28;20439;-78
2021/07/05 08:33:10;;;;;;;3.80;1.90;;;21.70;67.20;;;;;;5071800;28;20455;-78
2021/07/05 08:35:38;;;;;;;3.87;2.07;;;21.50;66.70;;;;;;5064934;28;20943;-80
2021/07/05 08:38:04;;;;;;;3.87;3.00;;;21.60;67.10;;;;;;5055835;28;20517;-79
2021/07/05 08:40:31;;;;;;;3.40;2.20;;;21.70;67.10;;;;;;5047850;28;20449;-79
2021/07/05 08:42:59;;;;;;;2.83;2.30;;;21.90;66.40;;;;;;5061601;28;20458;-78
2021/07/05 08:45:27;;;;;;;2.40;2.30;;;22.20;66.40;;;;;;5059448;28;20534;-80
2021/07/05 08:47:55;;;;;;;2.50;1.73;;;22.50;66.00;;;;;;5060996;28;20792;-79
2021/07/05 08:50:25;;;;;;;1.67;1.57;;;22.80;64.90;;;;;;5045829;28;20454;-80
2021/07/05 08:52:53;;;;;;;3.93;1.47;;;23.30;64.30;;;;;;5074085;28;20453;-80
2021/07/05 08:55:22;;;;;;;1.50;1.40;;;23.80;63.00;;;;;;5073863;28;20470;-80
2021/07/05 08:57:49;;;;;;;2.83;1.63;;;24.10;63.00;;;;;;5051258;28;20436;-80
2021/07/05 09:00:18;;;;;;;4.93;1.90;;;23.90;62.20;;;;;;5051883;28;20551;-80
2021/07/05 09:02:46;;;;;;;2.70;2.10;;;24.00;62.40;;;;;;5061421;28;20459;-79
2021/07/05 09:05:13;;;;;;;1.93;1.50;;;24.10;62.20;;;;;;5048432;28;20520;-80
2021/07/05 09:08:02;;;;;;;1.83;1.60;;;23.90;62.90;;;;;;5053168;28;20457;-79
2021/07/05 09:10:40;;;;;;;2.07;1.97;;;23.80;63.30;;;;;;5048090;28;20914;-80
2021/07/05 09:13:10;;;;;;;3.13;2.30;;;23.30;63.10;;;;;;5048806;28;20458;-80
2021/07/05 09:15:40;;;;;;;2.73;2.30;;;22.90;63.70;;;;;;5050536;28;20473;-79
2021/07/05 09:18:28;;;;;;;3.00;2.63;;;22.60;64.10;;;;;;5052020;28;20508;-79
2021/07/05 09:20:58;;;;;;;2.87;2.03;;;22.40;63.90;;;;;;5042282;28;20882;-79
2021/07/05 09:23:27;;;;;;;2.73;2.37;;;22.60;64.40;;;;;;5046940;28;20477;-79
2021/07/05 09:25:54;;;;;;;3.50;2.77;;;23.10;64.50;;;;;;5060174;28;20450;-79
2021/07/05 09:28:23;;;;;;;3.00;2.27;;;23.10;64.80;;;;;;5064995;28;20775;-80
2021/07/05 09:30:52;;;;;;;3.53;2.27;;;23.00;65.90;;;;;;5058602;28;20454;-80
2021/07/05 09:33:22;;;;;;;3.77;2.00;;;23.10;66.70;;;;;;5067763;28;20462;-80
2021/07/05 09:35:50;;;;;;;2.80;2.60;;;23.20;66.70;;;;;;5048660;28;21061;-80
2021/07/05 09:38:30;;;;;;;2.93;2.73;;;23.00;66.10;;;;;;5047308;28;20907;-81
2021/07/05 09:40:59;;;;;;;2.43;2.30;;;22.60;66.40;;;;;;5063155;28;20499;-80
2021/07/05 09:43:29;;;;;;;2.07;1.83;;;22.70;66.60;;;;;;5047897;28;20486;-79
2021/07/05 09:45:56;;;;;;;3.00;2.10;;;22.50;67.50;;;;;;5053094;28;20457;-80
2021/07/05 09:48:25;;;;;;;3.30;2.70;;;22.30;68.50;;;;;;5049820;28;20450;-80
2021/07/05 09:50:58;;;;;;;2.80;2.60;;;22.20;68.10;;;;;;5051332;28;20464;-79
2021/07/05 09:53:32;;;;;;;2.77;2.53;;;22.10;68.40;;;;;;5047060;28;20967;-80
2021/07/05 09:56:22;;;;;;;2.30;2.10;;;22.30;69.00;;;;;;5050825;28;20622;-80
2021/07/05 09:58:50;;;;;;;2.27;2.13;;;22.50;69.90;;;;;;5050751;28;20524;-80
2021/07/05 10:01:36;;;;;;;3.47;3.20;;;22.70;69.00;;;;;;5049411;28;20513;-80
2021/07/05 10:04:05;;;;;;;5.07;2.77;;;22.70;68.40;;;;;;5045467;28;20959;-80
2021/07/05 10:06:39;;;;;;;7.63;6.83;;;22.60;68.70;;;;;;5051819;28;20441;-80
2021/07/05 10:09:09;;;;;;;3.23;2.87;;;22.30;69.10;;;;;;5048075;28;21010;-81
2021/07/05 10:11:37;;;;;;;3.33;3.10;;;22.30;69.60;;;;;;5054458;28;20449;-82
2021/07/05 10:14:13;;;;;;;4.03;2.57;;;22.30;69.30;;;;;;5049122;28;20456;-82
2021/07/05 10:16:41;;;;;;;2.53;2.33;;;22.50;69.40;;;;;;5059428;28;20488;-81
2021/07/05 10:19:08;;;;;;;2.60;2.40;;;22.40;68.50;;;;;;5054034;28;20471;-81
2021/07/05 10:21:36;;;;;;;2.93;2.30;;;22.40;68.80;;;;;;5054505;28;20447;-80
2021/07/05 10:24:07;;;;;;;2.60;2.13;;;22.60;70.10;;;;;;5054898;28;20449;-81
2021/07/05 10:26:34;;;;;;;2.27;2.00;;;22.80;69.60;;;;;;5053561;28;20462;-81
2021/07/05 10:29:01;;;;;;;2.63;2.33;;;22.50;68.30;;;;;;5059982;28;20491;-81
2021/07/05 10:31:28;;;;;;;3.30;2.20;;;22.50;69.10;;;;;;5050674;28;20456;-81
2021/07/05 10:34:00;;;;;;;3.07;2.80;;;22.70;69.70;;;;;;5053184;28;20527;-81
2021/07/05 10:36:30;;;;;;;2.70;2.50;;;23.10;69.50;;;;;;5055022;28;20491;-81
2021/07/05 10:39:01;;;;;;;2.63;2.40;;;23.30;69.50;;;;;;5056750;28;20476;-81
2021/07/05 10:41:36;;;;;;;3.50;2.53;;;23.50;68.30;;;;;;5055909;28;20440;-81
2021/07/05 10:44:05;;;;;;;2.90;2.50;;;23.70;68.70;;;;;;5046658;28;20525;-81
2021/07/05 10:46:48;;;;;;;2.60;2.47;;;23.80;67.20;;;;;;5056991;28;20503;-81
2021/07/05 10:49:50;;;;;;;3.30;2.50;;;23.50;67.20;;;;;;5059169;28;20461;-80
2021/07/05 10:52:19;;;;;;;3.13;2.80;;;23.40;67.00;;;;;;5063059;28;20454;-81
2021/07/05 10:54:49;;;;;;;2.60;2.40;;;23.60;67.60;;;;;;5069428;28;20480;-80
2021/07/05 10:57:20;;;;;;;2.20;2.00;;;23.80;66.50;;;;;;5062111;28;20836;-81
2021/07/05 10:59:48;;;;;;;2.07;1.97;;;23.50;65.90;;;;;;5050562;28;20458;-81
2021/07/05 11:02:34;;;;;;;2.00;1.80;;;23.20;66.20;;;;;;5055746;28;20526;-80
2021/07/05 11:05:02;;;;;;;2.57;2.10;;;23.30;66.80;;;;;;5048145;28;20453;-80
2021/07/05 11:07:46;;;;;;;2.30;2.10;;;23.50;66.50;;;;;;5062799;28;20442;-80
2021/07/05 11:10:27;;;;;;;1.67;1.57;;;23.90;65.50;;;;;;5050783;28;20457;-80
2021/07/05 11:13:00;;;;;;;2.83;2.00;;;24.30;64.20;;;;;;5067094;28;20454;-80
2021/07/05 11:15:48;;;;;;;2.40;2.07;;;24.50;64.20;;;;;;5056080;28;20462;-82
2021/07/05 11:18:47;;;;;;;1.93;1.83;;;24.60;65.50;;;;;;5062576;28;20619;-83
2021/07/05 11:21:47;;;;;;;2.40;1.33;;;24.80;63.30;;;;;;5054765;28;20545;-83
2021/07/05 11:24:14;;;;;;;1.67;1.57;;;24.80;61.30;;;;;;5064891;28;20475;-83
2021/07/05 11:26:42;;;;;;;2.20;2.00;;;24.80;60.90;;;;;;5067554;28;20509;-82
2021/07/05 11:29:26;;;;;;;2.30;2.10;;;25.00;61.50;;;;;;5068226;28;20455;-83
2021/07/05 11:31:55;;;;;;;3.50;2.07;;;25.20;61.40;;;;;;5064573;28;20469;-82
2021/07/05 11:34:27;;;;;;;3.77;2.67;;;25.10;61.30;;;;;;5064987;28;20460;-84
2021/07/05 11:37:27;;;;;;;2.30;2.20;;;25.30;61.10;;;;;;5059798;28;20495;-81
2021/07/05 11:39:55;;;;;;;2.10;1.90;;;24.90;60.50;;;;;;5069682;28;20456;-84
2021/07/05 11:42:24;;;;;;;9.50;3.20;;;24.80;61.10;;;;;;5072502;28;20453;-81
2021/07/05 11:44:55;;;;;;;2.30;2.17;;;25.10;61.30;;;;;;5064557;28;20485;-79
2021/07/05 11:47:42;;;;;;;4.40;2.37;;;25.30;61.20;;;;;;5066985;28;20452;-80
2021/07/05 11:50:29;;;;;;;2.70;2.43;;;25.50;60.90;;;;;;5063812;28;20515;-80
2021/07/05 11:53:00;;;;;;;2.60;1.80;;;25.60;60.50;;;;;;5062144;28;20456;-82
2021/07/05 11:55:29;;;;;;;2.23;1.97;;;25.30;59.40;;;;;;5058662;28;20480;-80
2021/07/05 11:57:58;;;;;;;1.93;1.83;;;25.00;59.80;;;;;;5061414;28;20481;-82
2021/07/05 12:00:29;;;;;;;1.93;1.60;;;24.90;60.00;;;;;;5060431;28;21011;-82
2021/07/05 12:03:03;;;;;;;2.00;1.90;;;24.60;60.10;;;;;;5061567;28;20782;-81
2021/07/05 12:05:31;;;;;;;2.60;2.00;;;24.40;60.40;;;;;;5055633;28;20470;-85
2021/07/05 12:08:03;;;;;;;6.90;2.10;;;24.90;60.50;;;;;;5056471;28;20568;-83
2021/07/05 12:10:31;;;;;;;1.90;1.80;;;25.00;59.90;;;;;;5038470;28;20467;-80
2021/07/05 12:13:13;;;;;;;1.80;1.70;;;25.20;59.30;;;;;;5054021;28;20457;-81
2021/07/05 12:15:43;;;;;;;1.60;1.50;;;25.40;58.80;;;;;;5067840;28;20511;-80
2021/07/05 12:18:16;;;;;;;1.90;1.80;;;25.60;58.50;;;;;;5055064;28;20456;-80
2021/07/05 12:20:43;;;;;;;1.20;1.10;;;25.70;58.40;;;;;;5061777;28;20463;-80
2021/07/05 12:23:12;;;;;;;1.20;1.10;;;26.10;57.60;;;;;;5050930;28;20467;-80
2021/07/05 12:25:40;;;;;;;0.97;0.97;;;26.10;56.50;;;;;;5054479;28;20540;-81
2021/07/05 12:28:12;;;;;;;1.23;1.13;;;26.10;56.10;;;;;;5056538;28;20828;-81
2021/07/05 12:30:45;;;;;;;1.70;1.30;;;26.40;56.90;;;;;;5050386;28;20471;-80
2021/07/05 12:33:12;;;;;;;1.00;1.00;;;26.50;55.60;;;;;;5057341;28;20513;-79
2021/07/05 12:35:39;;;;;;;1.20;1.10;;;25.90;55.20;;;;;;5057901;28;20475;-81
2021/07/05 12:38:11;;;;;;;1.10;0.97;;;25.00;55.70;;;;;;5050831;28;20227;-80
2021/07/05 12:40:39;;;;;;;1.53;1.40;;;24.20;57.20;;;;;;5055902;28;20757;-78
2021/07/05 12:43:10;;;;;;;1.27;1.17;;;23.80;58.00;;;;;;5039255;28;20489;-79
2021/07/05 12:45:40;;;;;;;0.93;0.93;;;23.90;57.90;;;;;;5052176;28;20445;-82
2021/07/05 12:48:15;;;;;;;1.03;0.93;;;23.50;57.40;;;;;;5057901;28;20282;-81
2021/07/05 12:50:50;;;;;;;0.90;0.90;;;23.50;57.60;;;;;;5038681;28;20468;-81
2021/07/05 12:53:23;;;;;;;0.70;0.70;;;23.80;57.90;;;;;;5053801;28;20444;-83
2021/07/05 12:56:01;;;;;;;1.90;0.97;;;24.00;57.20;;;;;;5052281;28;20528;-83
2021/07/05 12:58:36;;;;;;;0.80;0.73;;;24.30;57.20;;;;;;5052798;28;20452;-81